Wilmington, NC

6:31 PM EDT on August 31, 2015 (GMT -0400)
Middle Sound Loop Rd | | Change Station
CLOSE
Current Station
Personal Weather Station
Location: Wilmington, NC
Elevation: 33 ft
Nearby Weather Stations

Elev 33 ft 34.27 °N, 77.82 °W | Updated 6 seconds ago

Overcast
Overcast
77.0 °F
Feels Like 78 °F
N
0.0
Wind Variable Wind from North
Gusts 0.0 mph

Today
High -- | Low -- °F
--% Chance of Precip.
Yesterday
High -- | Low -- °F
Precip. -- in
6:43 AM 7:38 PM
Waning Gibbous, 93% visible
Pressure 30.04 in
Visibility 1.2 miles
Clouds Few 600 ft
Mostly Cloudy 1100 ft
Overcast 3600 ft
Heat Index 78 °F
Dew Point 72 °F
Humidity 86%
Rainfall 0.89 in
Snow Depth Not available.
UV 0 out of 12
Pollen 2.90 out of 12
Air Quality Not available.
Flu Activity Not available.
SPECI KILM 312224Z 05004KT 1 1/4SM R35/2800VP6000FT +RA BR FEW006 BKN011 OVC036 24/24 A3004 RMK AO2 P0012 T02440239 $
Pressure 30.04 in
Visibility 1.2 miles
Clouds Few 600 ft
Mostly Cloudy 1100 ft
Overcast 3600 ft
Heat Index 78 °F
Dew Point 72 °F
Humidity 86%
Rainfall 0.89 in
Snow Depth Not available.
UV 0 out of 12
Pollen 2.90 out of 12
Air Quality Not available.
Flu Activity Not available.
SPECI KILM 312224Z 05004KT 1 1/4SM R35/2800VP6000FT +RA BR FEW006 BKN011 OVC036 24/24 A3004 RMK AO2 P0012 T02440239 $

10-Day Weather Forecast

×

Almanac

Astronomy

Aug. 31, 2015 Rise Set
Actual Time
Civil Twilight
Nautical Twilight
Astronomical Twilight
Moon
Length of Visible Light
Length of Day
Tomorrow will be .
, % of the Moon is Illuminated

Today's Extremes

State Highs State Lows

Community

WunderPhotos

Upload Photos

1,851,390 photos uploaded!

WunderBlogs® & News

Nearby

Air Quality

  Air Quality AQ Index Pollutant
Not available.

Snow Depth

Station Depth Elevation

Earthquake Activity

City Distance Mag. Time & Date
Minimum magnitude displayed is 2.5.

Coastal Water Temperatures

Place Temperature

Stations

Nearby Weather Stations

Station Location Temp. Windchill Dew Point Humidity Wind Precip. Elev Updated Type